createdAt,value
2018-09-09T00:00:30.507Z,14.54
2018-09-09T00:01:30.430Z,14.52
2018-09-09T00:03:23.195Z,14.49
2018-09-09T00:04:23.130Z,14.49
2018-09-09T00:06:15.902Z,14.39
2018-09-09T00:07:15.829Z,14.31
2018-09-09T00:09:08.596Z,14.44
2018-09-09T00:10:08.528Z,14.31
2018-09-09T00:12:01.291Z,14.29
2018-09-09T00:13:01.217Z,14.31
2018-09-09T00:14:54.001Z,14.35
2018-09-09T00:15:53.928Z,14.21
2018-09-09T00:17:46.683Z,14.20
2018-09-09T00:18:46.623Z,14.24
2018-09-09T00:20:39.397Z,14.21
2018-09-09T00:21:39.320Z,14.23
2018-09-09T00:23:32.090Z,14.26
2018-09-09T00:24:32.025Z,14.16
2018-09-09T00:26:24.802Z,14.11
2018-09-09T00:27:24.733Z,14.12
2018-09-09T00:29:17.482Z,14.19
2018-09-09T00:30:17.414Z,14.20
2018-09-09T00:32:10.230Z,14.17
2018-09-09T00:33:10.145Z,14.09
2018-09-09T00:35:02.915Z,14.09
2018-09-09T00:36:02.839Z,14.16
2018-09-09T00:37:55.617Z,14.13
2018-09-09T00:38:55.547Z,14.21
2018-09-09T00:40:48.321Z,14.24
2018-09-09T00:41:48.236Z,14.23
2018-09-09T00:43:41.029Z,14.29
2018-09-09T00:44:40.980Z,14.36
2018-09-09T00:46:33.742Z,14.34
2018-09-09T00:47:33.667Z,14.45
2018-09-09T00:49:26.427Z,14.61
2018-09-09T00:50:26.362Z,14.54
2018-09-09T00:52:19.138Z,14.54
2018-09-09T00:53:19.059Z,14.48
2018-09-09T00:55:11.836Z,14.42
2018-09-09T00:56:11.762Z,14.49
2018-09-09T00:58:04.531Z,14.41
2018-09-09T00:59:04.464Z,14.34
2018-09-09T01:00:57.230Z,14.31
2018-09-09T01:01:57.154Z,14.26
2018-09-09T01:03:49.940Z,14.29
2018-09-09T01:04:49.856Z,14.19
2018-09-09T01:06:42.631Z,14.20
2018-09-09T01:07:42.555Z,14.09
2018-09-09T01:09:35.326Z,14.09
2018-09-09T01:10:35.261Z,13.96
2018-09-09T01:12:28.039Z,14.05
2018-09-09T01:13:27.961Z,14.04
2018-09-09T01:15:20.715Z,14.09
2018-09-09T01:16:20.654Z,14.12
2018-09-09T01:18:13.426Z,13.99
2018-09-09T01:19:13.350Z,14.11
2018-09-09T01:21:06.140Z,14.05
2018-09-09T01:22:06.055Z,14.05
2018-09-09T01:23:58.818Z,14.16
2018-09-09T01:24:58.753Z,14.12
2018-09-09T01:26:51.525Z,14.24
2018-09-09T01:27:51.502Z,14.24
2018-09-09T01:29:44.204Z,14.17
2018-09-09T01:30:44.146Z,14.36
2018-09-09T01:32:36.922Z,14.34
2018-09-09T01:33:36.851Z,14.36
2018-09-09T01:35:29.611Z,14.39
2018-09-09T01:36:29.549Z,14.35
2018-09-09T01:38:22.323Z,14.52
2018-09-09T01:39:22.293Z,14.42
2018-09-09T01:41:15.020Z,14.45
2018-09-09T01:42:14.944Z,14.41
2018-09-09T01:44:07.708Z,14.42
2018-09-09T01:45:07.641Z,14.48
2018-09-09T01:47:00.415Z,14.42
2018-09-09T01:48:00.343Z,14.48
2018-09-09T01:49:53.102Z,14.44
2018-09-09T01:50:53.035Z,14.42
2018-09-09T01:52:45.813Z,14.44
2018-09-09T01:53:45.732Z,14.42
2018-09-09T01:55:38.495Z,14.54
2018-09-09T01:56:38.432Z,14.53
2018-09-09T01:58:31.216Z,14.44
2018-09-09T01:59:31.146Z,14.48
2018-09-09T02:01:23.933Z,14.49
2018-09-09T02:02:23.864Z,14.52
2018-09-09T02:04:16.616Z,14.49
2018-09-09T02:05:16.557Z,14.49
2018-09-09T02:07:09.362Z,14.52
2018-09-09T02:08:09.291Z,14.54
2018-09-09T02:10:02.047Z,14.49
2018-09-09T02:11:01.985Z,14.46
2018-09-09T02:12:54.770Z,14.52
2018-09-09T02:13:54.686Z,14.54
2018-09-09T02:15:47.457Z,14.57
2018-09-09T02:16:47.398Z,14.59
2018-09-09T02:18:40.194Z,14.53
2018-09-09T02:19:40.128Z,14.63
2018-09-09T02:21:32.899Z,14.60
2018-09-09T02:22:32.839Z,14.49
2018-09-09T02:24:25.586Z,14.57
2018-09-09T02:25:25.527Z,14.54
2018-09-09T02:27:18.307Z,14.48
2018-09-09T02:28:18.232Z,14.53
2018-09-09T02:30:11.009Z,14.49
2018-09-09T02:31:10.946Z,14.52
2018-09-09T02:33:03.715Z,14.53
2018-09-09T02:34:03.641Z,14.46
2018-09-09T02:35:56.394Z,14.49
2018-09-09T02:36:56.334Z,14.46
2018-09-09T02:38:49.103Z,14.38
2018-09-09T02:39:49.043Z,14.36
2018-09-09T02:41:41.817Z,14.35
2018-09-09T02:42:41.741Z,14.31
2018-09-09T02:44:34.515Z,14.34
2018-09-09T02:45:34.449Z,14.21
2018-09-09T02:47:27.216Z,14.31
2018-09-09T02:48:27.141Z,14.23
2018-09-09T02:50:19.915Z,14.24
2018-09-09T02:51:19.842Z,14.21
2018-09-09T02:53:13.502Z,14.12
2018-09-09T02:54:13.424Z,14.21
2018-09-09T02:56:06.194Z,14.17
2018-09-09T02:57:06.116Z,14.13
2018-09-09T02:58:58.899Z,14.23
2018-09-09T02:59:58.808Z,14.13
2018-09-09T03:01:51.573Z,14.21
2018-09-09T03:02:51.501Z,14.17
2018-09-09T03:04:44.263Z,14.19
2018-09-09T03:05:44.198Z,14.16
2018-09-09T03:07:36.979Z,14.05
2018-09-09T03:08:36.905Z,14.05
2018-09-09T03:10:29.659Z,14.13
2018-09-09T03:11:29.603Z,14.11
2018-09-09T03:13:22.369Z,14.04
2018-09-09T03:14:22.303Z,14.06
2018-09-09T03:16:15.060Z,14.08
2018-09-09T03:17:14.989Z,14.09
2018-09-09T03:19:07.776Z,14.05
2018-09-09T03:20:07.700Z,14.06
2018-09-09T03:22:00.472Z,14.20
2018-09-09T03:23:00.419Z,14.02
2018-09-09T03:24:53.165Z,14.16
2018-09-09T03:25:53.108Z,14.17
2018-09-09T03:27:45.872Z,13.99
2018-09-09T03:28:45.902Z,13.99
2018-09-09T03:30:38.560Z,14.04
2018-09-09T03:31:38.497Z,14.11
2018-09-09T03:33:31.267Z,13.90
2018-09-09T03:34:31.191Z,14.04
2018-09-09T03:36:23.962Z,13.94
2018-09-09T03:37:23.894Z,13.87
2018-09-09T03:39:16.686Z,13.87
2018-09-09T03:40:16.598Z,13.83
2018-09-09T03:42:09.372Z,13.75
2018-09-09T03:43:09.302Z,13.66
2018-09-09T03:45:02.061Z,13.59
2018-09-09T03:46:02.002Z,13.61
2018-09-09T03:47:55.280Z,13.66
2018-09-09T03:48:55.201Z,13.68
2018-09-09T03:50:47.981Z,13.69
2018-09-09T03:51:47.937Z,13.68
2018-09-09T03:53:40.697Z,13.68
2018-09-09T03:54:40.626Z,13.71
2018-09-09T03:56:33.386Z,13.76
2018-09-09T03:57:33.324Z,13.72
2018-09-09T03:59:26.110Z,13.80
2018-09-09T04:00:26.046Z,13.80
2018-09-09T04:02:18.838Z,13.80
2018-09-09T04:03:18.764Z,13.84
2018-09-09T04:05:11.522Z,13.87
2018-09-09T04:06:11.457Z,13.86
2018-09-09T04:08:04.260Z,13.81
2018-09-09T04:09:04.158Z,13.87
2018-09-09T04:10:56.970Z,13.86
2018-09-09T04:11:56.907Z,13.80
2018-09-09T04:13:49.683Z,13.91
2018-09-09T04:14:49.604Z,13.88
2018-09-09T04:16:42.377Z,13.87
2018-09-09T04:17:42.309Z,13.81
2018-09-09T04:19:35.091Z,13.81
2018-09-09T04:20:35.010Z,13.84
2018-09-09T04:22:27.786Z,13.86
2018-09-09T04:23:27.713Z,13.86
2018-09-09T04:25:20.501Z,13.83
2018-09-09T04:26:20.424Z,13.80
2018-09-09T04:28:13.204Z,13.98
2018-09-09T04:29:13.126Z,13.90
2018-09-09T04:31:05.899Z,13.93
2018-09-09T04:32:05.823Z,13.98
2018-09-09T04:33:58.599Z,13.94
2018-09-09T04:34:58.528Z,13.94
2018-09-09T04:36:51.359Z,14.01
2018-09-09T04:37:51.279Z,13.96
2018-09-09T04:39:44.076Z,13.96
2018-09-09T04:40:43.972Z,14.05
2018-09-09T04:42:36.877Z,13.94
2018-09-09T04:43:36.710Z,14.01
2018-09-09T04:45:29.480Z,14.01
2018-09-09T04:46:29.567Z,13.98
2018-09-09T04:48:22.179Z,13.94
2018-09-09T04:49:22.101Z,14.06
2018-09-09T04:51:14.867Z,13.90
2018-09-09T04:52:14.809Z,14.01
2018-09-09T04:54:07.584Z,13.98
2018-09-09T04:55:07.523Z,14.08
2018-09-09T04:57:00.269Z,14.05
2018-09-09T04:58:00.205Z,13.99
2018-09-09T04:59:53.007Z,14.08
2018-09-09T05:00:52.931Z,14.02
2018-09-09T05:02:45.715Z,14.09
2018-09-09T05:03:45.627Z,14.16
2018-09-09T05:05:38.401Z,14.16
2018-09-09T05:06:38.333Z,14.27
2018-09-09T05:08:31.138Z,14.26
2018-09-09T05:09:31.061Z,14.24
2018-09-09T05:11:23.829Z,14.35
2018-09-09T05:12:23.746Z,14.44
2018-09-09T05:14:16.527Z,14.41
2018-09-09T05:15:16.452Z,14.42
2018-09-09T05:17:09.204Z,14.45
2018-09-09T05:18:09.150Z,14.52
2018-09-09T05:20:01.949Z,14.59
2018-09-09T05:21:01.868Z,14.57
2018-09-09T05:22:54.626Z,14.64
2018-09-09T05:23:54.589Z,14.79
2018-09-09T05:25:47.346Z,14.78
2018-09-09T05:26:47.260Z,14.79
2018-09-09T05:28:40.034Z,14.79
2018-09-09T05:29:39.965Z,14.85
2018-09-09T05:31:32.737Z,14.94
2018-09-09T05:32:32.667Z,14.95
2018-09-09T05:34:25.435Z,15.01
2018-09-09T05:35:25.367Z,15.04
2018-09-09T05:37:18.151Z,15.19
2018-09-09T05:38:18.090Z,15.23
2018-09-09T05:40:10.884Z,15.30
2018-09-09T05:41:10.809Z,15.38
2018-09-09T05:43:03.572Z,15.41
2018-09-09T05:44:03.502Z,15.44
2018-09-09T05:45:56.275Z,15.38
2018-09-09T05:46:56.200Z,15.51
2018-09-09T05:48:48.964Z,15.53
2018-09-09T05:49:48.893Z,15.62
2018-09-09T05:51:41.652Z,15.68
2018-09-09T05:52:41.588Z,15.74
2018-09-09T05:54:34.358Z,15.80
2018-09-09T05:55:34.282Z,15.88
2018-09-09T05:57:27.097Z,15.91
2018-09-09T05:58:26.999Z,15.86
2018-09-09T06:00:19.770Z,16.06
2018-09-09T06:01:19.689Z,16.03
2018-09-09T06:03:12.446Z,16.10
2018-09-09T06:04:12.384Z,16.13
2018-09-09T06:06:05.164Z,16.23
2018-09-09T06:07:05.083Z,16.18
2018-09-09T06:08:57.860Z,16.32
2018-09-09T06:09:57.788Z,16.36
2018-09-09T06:11:50.550Z,16.50
2018-09-09T06:12:50.488Z,16.52
2018-09-09T06:14:43.360Z,16.65
2018-09-09T06:15:43.285Z,16.75
2018-09-09T06:17:36.101Z,16.75
2018-09-09T06:18:35.992Z,16.88
2018-09-09T06:20:28.762Z,16.99
2018-09-09T06:21:28.691Z,17.02
2018-09-09T06:23:21.470Z,17.06
2018-09-09T06:24:21.437Z,17.03
2018-09-09T06:26:14.214Z,16.98
2018-09-09T06:27:14.136Z,17.00
2018-09-09T06:29:06.935Z,16.98
2018-09-09T06:30:06.862Z,16.91
2018-09-09T06:31:59.685Z,16.95
2018-09-09T06:32:59.606Z,16.99
2018-09-09T06:34:52.398Z,17.07
2018-09-09T06:35:52.326Z,17.10
2018-09-09T06:37:45.115Z,17.17
2018-09-09T06:38:45.019Z,17.35
2018-09-09T06:40:37.788Z,17.39
2018-09-09T06:41:37.759Z,17.45
2018-09-09T06:43:30.493Z,17.47
2018-09-09T06:44:30.427Z,17.54
2018-09-09T06:46:23.273Z,17.53
2018-09-09T06:47:23.127Z,17.57
2018-09-09T06:49:15.932Z,17.62
2018-09-09T06:50:15.853Z,17.76
2018-09-09T06:52:08.621Z,17.79
2018-09-09T06:53:08.556Z,17.77
2018-09-09T06:55:01.436Z,17.70
2018-09-09T06:56:01.303Z,17.86
2018-09-09T06:57:54.091Z,17.77
2018-09-09T06:58:54.012Z,17.79
2018-09-09T07:00:46.786Z,17.91
2018-09-09T07:01:46.708Z,17.92
2018-09-09T07:03:39.503Z,18.01
2018-09-09T07:04:39.444Z,18.02
2018-09-09T07:06:32.199Z,18.01
2018-09-09T07:07:32.128Z,18.09
2018-09-09T07:09:24.932Z,18.13
2018-09-09T07:10:24.825Z,18.23
2018-09-09T07:12:17.635Z,18.38
2018-09-09T07:13:17.532Z,18.35
2018-09-09T07:15:10.389Z,18.47
2018-09-09T07:16:10.241Z,18.74
2018-09-09T07:18:03.005Z,18.68
2018-09-09T07:19:02.993Z,18.78
2018-09-09T07:20:55.719Z,18.96
2018-09-09T07:21:55.646Z,19.06
2018-09-09T07:23:48.484Z,19.24
2018-09-09T07:24:48.421Z,19.38
2018-09-09T07:26:41.207Z,19.55
2018-09-09T07:27:41.185Z,19.72
2018-09-09T07:29:33.931Z,19.80
2018-09-09T07:30:33.851Z,20.04
2018-09-09T07:32:26.673Z,20.42
2018-09-09T07:33:26.613Z,20.56
2018-09-09T07:35:19.388Z,20.60
2018-09-09T07:36:19.307Z,20.72
2018-09-09T07:38:12.113Z,21.03
2018-09-09T07:39:12.046Z,21.48
2018-09-09T07:41:04.869Z,22.45
2018-09-09T07:42:04.780Z,22.69
2018-09-09T07:43:57.556Z,23.16
2018-09-09T07:44:57.493Z,23.63
2018-09-09T07:46:50.319Z,24.00
2018-09-09T07:47:50.224Z,24.39
2018-09-09T07:49:43.036Z,24.45
2018-09-09T07:50:42.956Z,24.16
2018-09-09T07:52:35.711Z,24.05
2018-09-09T07:53:35.642Z,24.26
2018-09-09T07:55:28.421Z,24.52
2018-09-09T07:56:28.346Z,25.26
2018-09-09T07:58:21.202Z,25.48
2018-09-09T07:59:21.129Z,25.35
2018-09-09T08:01:13.917Z,25.27
2018-09-09T08:02:13.887Z,25.23
2018-09-09T08:04:06.667Z,25.31
2018-09-09T08:05:06.597Z,25.67
2018-09-09T08:06:59.413Z,26.23
2018-09-09T08:07:59.343Z,26.29
2018-09-09T08:09:52.165Z,27.02
2018-09-09T08:10:52.088Z,27.08
2018-09-09T08:12:44.858Z,26.79
2018-09-09T08:13:44.803Z,26.46
2018-09-09T08:15:37.591Z,26.81
2018-09-09T08:16:37.523Z,27.23
2018-09-09T08:18:30.391Z,27.42
2018-09-09T08:19:30.240Z,27.40
2018-09-09T08:21:23.110Z,27.16
2018-09-09T08:22:23.015Z,27.09
2018-09-09T08:24:15.800Z,26.98
2018-09-09T08:25:15.740Z,27.15
2018-09-09T08:27:08.531Z,27.63
2018-09-09T08:28:08.466Z,28.23
2018-09-09T08:30:01.293Z,27.59
2018-09-09T08:31:01.196Z,28.32
2018-09-09T08:32:54.008Z,29.62
2018-09-09T08:33:53.919Z,29.99
2018-09-09T08:35:46.704Z,30.82
2018-09-09T08:36:46.637Z,30.66
2018-09-09T08:38:39.444Z,30.13
2018-09-09T08:39:39.390Z,30.19
2018-09-09T08:41:32.224Z,30.11
2018-09-09T08:42:32.157Z,29.86
2018-09-09T08:44:24.935Z,29.30
2018-09-09T08:45:24.915Z,29.23
2018-09-09T08:47:17.671Z,28.88
2018-09-09T08:48:17.612Z,28.21
2018-09-09T08:50:10.416Z,27.76
2018-09-09T08:51:10.352Z,27.63
2018-09-09T08:53:03.148Z,27.81
2018-09-09T08:54:03.103Z,28.01
2018-09-09T08:55:55.901Z,28.28
2018-09-09T08:56:55.831Z,28.52
2018-09-09T08:58:48.629Z,28.73
2018-09-09T08:59:48.555Z,28.92
2018-09-09T09:01:41.355Z,29.44
2018-09-09T09:02:41.287Z,29.64
2018-09-09T09:04:34.135Z,29.73
2018-09-09T09:05:34.042Z,29.73
2018-09-09T09:07:26.868Z,29.58
2018-09-09T09:08:26.835Z,29.25
2018-09-09T09:10:19.601Z,29.26
2018-09-09T09:11:19.540Z,29.70
2018-09-09T09:13:12.350Z,29.99
2018-09-09T09:14:12.337Z,30.30
2018-09-09T09:16:05.108Z,30.75
2018-09-09T09:17:05.045Z,31.01
2018-09-09T09:18:57.837Z,31.35
2018-09-09T09:19:57.783Z,31.01
2018-09-09T09:21:50.566Z,30.53
2018-09-09T09:22:50.503Z,29.85
2018-09-09T09:24:43.332Z,29.29
2018-09-09T09:25:43.257Z,28.80
2018-09-09T09:27:36.065Z,29.42
2018-09-09T09:28:36.037Z,29.86
2018-09-09T09:30:28.822Z,30.48
2018-09-09T09:31:28.745Z,30.70
2018-09-09T09:33:21.520Z,31.31
2018-09-09T09:34:21.478Z,31.34
2018-09-09T09:36:14.337Z,31.05
2018-09-09T09:37:14.238Z,31.05
2018-09-09T09:39:07.067Z,31.01
2018-09-09T09:40:06.988Z,31.37
2018-09-09T09:41:59.798Z,31.47
2018-09-09T09:42:59.733Z,31.62
2018-09-09T09:44:52.596Z,31.92
2018-09-09T09:45:52.499Z,31.91
2018-09-09T09:47:45.310Z,31.97
2018-09-09T09:48:45.243Z,31.94
2018-09-09T09:50:38.033Z,31.99
2018-09-09T09:51:37.984Z,32.10
2018-09-09T09:53:30.855Z,31.03
2018-09-09T09:54:30.735Z,31.04
2018-09-09T09:56:23.546Z,31.41
2018-09-09T09:57:23.489Z,31.28
2018-09-09T09:59:16.295Z,31.35
2018-09-09T10:00:16.240Z,31.38
2018-09-09T10:02:09.045Z,31.04
2018-09-09T10:03:08.988Z,31.03
2018-09-09T10:05:01.798Z,31.03
2018-09-09T10:06:01.744Z,30.81
2018-09-09T10:07:54.552Z,31.00
2018-09-09T10:08:54.528Z,31.37
2018-09-09T10:10:47.278Z,31.32
2018-09-09T10:11:47.229Z,31.25
2018-09-09T10:13:40.085Z,31.30
2018-09-09T10:14:40.028Z,30.90
2018-09-09T10:16:32.839Z,30.61
2018-09-09T10:17:32.772Z,30.59
2018-09-09T10:19:25.625Z,30.66
2018-09-09T10:20:25.579Z,30.88
2018-09-09T10:22:18.411Z,30.75
2018-09-09T10:23:18.353Z,30.72
2018-09-09T10:25:11.157Z,30.60
2018-09-09T10:26:11.120Z,30.45
2018-09-09T10:28:03.984Z,29.86
2018-09-09T10:29:03.862Z,29.71
2018-09-09T10:30:56.698Z,29.54
2018-09-09T10:31:56.596Z,29.49
2018-09-09T10:33:49.455Z,29.60
2018-09-09T10:34:49.362Z,29.86
2018-09-09T10:36:42.167Z,29.76
2018-09-09T10:37:42.139Z,29.36
2018-09-09T10:39:34.904Z,28.65
2018-09-09T10:40:34.858Z,28.74
2018-09-09T10:42:27.695Z,29.07
2018-09-09T10:43:27.624Z,29.15
2018-09-09T10:45:20.425Z,29.27
2018-09-09T10:46:20.504Z,29.36
2018-09-09T10:48:13.184Z,29.21
2018-09-09T10:49:13.106Z,29.36
2018-09-09T10:51:05.915Z,29.33
2018-09-09T10:52:05.863Z,29.47
2018-09-09T10:53:58.663Z,29.70
2018-09-09T10:54:58.592Z,29.99
2018-09-09T10:56:51.408Z,30.11
2018-09-09T10:57:51.395Z,30.21
2018-09-09T10:59:44.152Z,30.19
2018-09-09T11:00:44.101Z,29.88
2018-09-09T11:02:36.915Z,29.97
2018-09-09T11:03:36.840Z,29.99
2018-09-09T11:05:29.675Z,29.74
2018-09-09T11:06:29.616Z,29.69
2018-09-09T11:08:22.423Z,29.54
2018-09-09T11:09:22.357Z,29.21
2018-09-09T11:11:15.165Z,28.77
2018-09-09T11:12:15.140Z,28.62
2018-09-09T11:14:08.759Z,28.72
2018-09-09T11:15:08.680Z,28.48
2018-09-09T11:17:01.496Z,28.61
2018-09-09T11:18:01.430Z,28.72
2018-09-09T11:19:54.259Z,28.87
2018-09-09T11:20:54.204Z,28.70
2018-09-09T11:22:47.070Z,28.77
2018-09-09T11:23:46.998Z,28.76
2018-09-09T11:25:39.828Z,28.55
2018-09-09T11:26:39.786Z,28.74
2018-09-09T11:28:32.580Z,28.65
2018-09-09T11:29:32.507Z,28.45
2018-09-09T11:31:25.347Z,27.99
2018-09-09T11:32:25.293Z,28.01
2018-09-09T11:34:18.090Z,27.91
2018-09-09T11:35:18.027Z,27.76
2018-09-09T11:37:10.911Z,27.42
2018-09-09T11:38:10.844Z,27.24
2018-09-09T11:40:03.619Z,26.88
2018-09-09T11:41:03.560Z,26.88
2018-09-09T11:42:56.369Z,26.90
2018-09-09T11:43:56.272Z,26.88
2018-09-09T11:45:49.083Z,26.88
2018-09-09T11:46:49.021Z,26.90
2018-09-09T11:48:41.831Z,26.91
2018-09-09T11:49:41.775Z,27.06
2018-09-09T11:51:34.553Z,26.83
2018-09-09T11:52:34.486Z,26.79
2018-09-09T11:54:27.289Z,26.78
2018-09-09T11:55:27.207Z,26.76
2018-09-09T11:57:20.004Z,26.73
2018-09-09T11:58:19.950Z,26.61
2018-09-09T12:00:12.698Z,26.56
2018-09-09T12:01:12.635Z,26.57
2018-09-09T12:03:05.416Z,26.36
2018-09-09T12:04:05.349Z,26.23
2018-09-09T12:05:58.194Z,26.23
2018-09-09T12:06:58.067Z,26.23
2018-09-09T12:08:50.878Z,26.31
2018-09-09T12:09:50.806Z,26.36
2018-09-09T12:11:43.579Z,26.39
2018-09-09T12:12:43.535Z,26.42
2018-09-09T12:14:36.329Z,26.50
2018-09-09T12:15:36.279Z,26.46
2018-09-09T12:17:29.066Z,26.59
2018-09-09T12:18:28.985Z,26.38
2018-09-09T12:20:21.768Z,26.24
2018-09-09T12:21:21.702Z,26.24
2018-09-09T12:23:14.477Z,26.21
2018-09-09T12:24:14.411Z,26.21
2018-09-09T12:26:07.184Z,26.24
2018-09-09T12:27:07.127Z,26.39
2018-09-09T12:28:59.905Z,26.44
2018-09-09T12:29:59.842Z,26.32
2018-09-09T12:31:52.616Z,26.34
2018-09-09T12:32:52.551Z,26.47
2018-09-09T12:34:45.381Z,26.35
2018-09-09T12:35:45.303Z,26.49
2018-09-09T12:37:38.133Z,26.35
2018-09-09T12:38:38.049Z,26.13
2018-09-09T12:40:30.891Z,26.21
2018-09-09T12:41:30.885Z,26.17
2018-09-09T12:43:23.653Z,26.19
2018-09-09T12:44:23.576Z,26.24
2018-09-09T12:46:16.349Z,26.11
2018-09-09T12:47:16.428Z,26.08
2018-09-09T12:49:09.082Z,26.11
2018-09-09T12:50:09.033Z,26.19
2018-09-09T12:52:01.781Z,26.11
2018-09-09T12:53:01.722Z,26.23
2018-09-09T12:54:54.507Z,26.29
2018-09-09T12:55:54.435Z,26.31
2018-09-09T12:57:47.216Z,26.28
2018-09-09T12:58:47.156Z,26.34
2018-09-09T13:00:39.939Z,26.41
2018-09-09T13:01:39.882Z,26.32
2018-09-09T13:03:32.647Z,26.31
2018-09-09T13:04:32.576Z,26.23
2018-09-09T13:06:25.377Z,26.11
2018-09-09T13:07:25.425Z,26.03
2018-09-09T13:09:18.098Z,26.11
2018-09-09T13:10:18.024Z,26.16
2018-09-09T13:12:10.823Z,26.20
2018-09-09T13:13:10.768Z,26.24
2018-09-09T13:15:03.567Z,26.36
2018-09-09T13:16:03.511Z,26.34
2018-09-09T13:17:56.381Z,26.29
2018-09-09T13:18:56.275Z,26.23
2018-09-09T13:20:49.182Z,26.29
2018-09-09T13:21:48.988Z,26.27
2018-09-09T13:23:41.778Z,26.24
2018-09-09T13:24:41.707Z,26.34
2018-09-09T13:26:34.482Z,26.35
2018-09-09T13:27:34.431Z,26.35
2018-09-09T13:29:27.226Z,26.28
2018-09-09T13:30:27.195Z,26.12
2018-09-09T13:32:19.919Z,26.20
2018-09-09T13:33:19.849Z,26.20
2018-09-09T13:35:12.649Z,26.12
2018-09-09T13:36:12.574Z,26.12
2018-09-09T13:38:05.346Z,26.20
2018-09-09T13:39:05.285Z,26.28
2018-09-09T13:40:58.086Z,26.42
2018-09-09T13:41:58.018Z,26.31
2018-09-09T13:43:50.839Z,26.32
2018-09-09T13:44:50.750Z,26.23
2018-09-09T13:46:43.531Z,26.28
2018-09-09T13:47:43.474Z,26.32
2018-09-09T13:49:36.272Z,26.27
2018-09-09T13:50:36.209Z,26.17
2018-09-09T13:52:28.991Z,26.13
2018-09-09T13:53:28.922Z,26.17
2018-09-09T13:55:21.693Z,26.21
2018-09-09T13:56:21.626Z,26.17
2018-09-09T13:58:14.468Z,26.13
2018-09-09T13:59:14.379Z,26.13
2018-09-09T14:01:07.175Z,26.16
2018-09-09T14:02:07.084Z,26.24
2018-09-09T14:03:59.880Z,26.32
2018-09-09T14:04:59.823Z,26.29
2018-09-09T14:06:52.576Z,26.31
2018-09-09T14:07:52.532Z,26.32
2018-09-09T14:09:45.367Z,26.29
2018-09-09T14:10:45.229Z,26.29
2018-09-09T14:12:37.999Z,26.32
2018-09-09T14:13:37.940Z,26.29
2018-09-09T14:15:30.728Z,26.23
2018-09-09T14:16:30.657Z,26.28
2018-09-09T14:18:23.466Z,26.16
2018-09-09T14:19:23.428Z,26.29
2018-09-09T14:21:16.176Z,26.24
2018-09-09T14:22:16.182Z,26.27
2018-09-09T14:24:08.887Z,26.17
2018-09-09T14:25:08.826Z,26.17
2018-09-09T14:27:01.594Z,26.21
2018-09-09T14:28:01.577Z,26.20
2018-09-09T14:29:54.347Z,26.19
2018-09-09T14:30:54.283Z,26.21
2018-09-09T14:32:47.050Z,26.28
2018-09-09T14:33:47.007Z,26.27
2018-09-09T14:35:39.805Z,26.28
2018-09-09T14:36:39.739Z,26.34
2018-09-09T14:38:32.513Z,26.27
2018-09-09T14:39:32.458Z,26.36
2018-09-09T14:41:25.246Z,26.28
2018-09-09T14:42:25.161Z,26.31
2018-09-09T14:44:17.970Z,26.19
2018-09-09T14:45:17.887Z,26.17
2018-09-09T14:47:10.683Z,26.09
2018-09-09T14:48:10.607Z,26.11
2018-09-09T14:50:03.432Z,26.12
2018-09-09T14:51:03.366Z,26.13
2018-09-09T14:52:56.177Z,26.06
2018-09-09T14:53:56.082Z,26.13
2018-09-09T14:55:48.864Z,26.11
2018-09-09T14:56:48.789Z,26.12
2018-09-09T14:58:41.596Z,26.08
2018-09-09T14:59:41.531Z,26.12
2018-09-09T15:01:34.359Z,26.08
2018-09-09T15:02:34.290Z,26.11
2018-09-09T15:04:27.127Z,25.98
2018-09-09T15:05:27.041Z,26.03
2018-09-09T15:07:19.854Z,26.00
2018-09-09T15:08:19.791Z,26.00
2018-09-09T15:10:12.569Z,26.01
2018-09-09T15:11:12.504Z,26.09
2018-09-09T15:13:05.264Z,26.01
2018-09-09T15:14:05.203Z,25.97
2018-09-09T15:15:58.001Z,25.98
2018-09-09T15:16:57.940Z,25.91
2018-09-09T15:18:50.739Z,25.79
2018-09-09T15:19:50.678Z,25.96
2018-09-09T15:21:43.535Z,25.96
2018-09-09T15:22:43.428Z,25.96
2018-09-09T15:24:36.253Z,25.93
2018-09-09T15:25:36.141Z,25.94
2018-09-09T15:27:28.982Z,26.00
2018-09-09T15:28:28.851Z,25.91
2018-09-09T15:30:21.654Z,25.96
2018-09-09T15:31:21.575Z,25.82
2018-09-09T15:33:14.389Z,25.74
2018-09-09T15:34:14.379Z,25.71
2018-09-09T15:36:07.132Z,25.81
2018-09-09T15:37:07.068Z,25.75
2018-09-09T15:38:59.837Z,25.83
2018-09-09T15:39:59.883Z,25.76
2018-09-09T15:41:52.568Z,25.83
2018-09-09T15:42:52.499Z,25.76
2018-09-09T15:44:45.309Z,25.78
2018-09-09T15:45:45.273Z,25.78
2018-09-09T15:47:38.051Z,25.74
2018-09-09T15:48:37.976Z,25.66
2018-09-09T15:50:30.802Z,25.63
2018-09-09T15:51:30.732Z,25.48
2018-09-09T15:53:23.540Z,25.46
2018-09-09T15:54:23.482Z,25.56
2018-09-09T15:56:16.304Z,25.49
2018-09-09T15:57:16.233Z,25.44
2018-09-09T15:59:09.055Z,25.39
2018-09-09T16:00:08.980Z,25.45
2018-09-09T16:02:01.783Z,25.38
2018-09-09T16:03:01.698Z,25.26
2018-09-09T16:04:54.466Z,25.29
2018-09-09T16:05:54.400Z,25.22
2018-09-09T16:07:47.231Z,25.17
2018-09-09T16:08:47.126Z,25.08
2018-09-09T16:10:39.922Z,25.08
2018-09-09T16:11:39.918Z,25.11
2018-09-09T16:13:32.640Z,25.02
2018-09-09T16:14:32.579Z,24.99
2018-09-09T16:16:25.372Z,24.94
2018-09-09T16:17:25.299Z,24.98
2018-09-09T16:19:18.076Z,24.98
2018-09-09T16:20:18.017Z,24.86
2018-09-09T16:22:10.855Z,24.92
2018-09-09T16:23:10.797Z,24.90
2018-09-09T16:25:03.547Z,24.77
2018-09-09T16:26:03.486Z,24.70
2018-09-09T16:27:56.275Z,24.67
2018-09-09T16:28:56.200Z,24.64
2018-09-09T16:30:49.021Z,24.42
2018-09-09T16:31:48.921Z,24.48
2018-09-09T16:33:41.710Z,24.48
2018-09-09T16:34:41.648Z,24.46
2018-09-09T16:36:34.475Z,24.33
2018-09-09T16:37:34.390Z,24.34
2018-09-09T16:39:27.133Z,24.30
2018-09-09T16:40:27.092Z,24.30
2018-09-09T16:42:19.878Z,24.24
2018-09-09T16:43:19.807Z,24.23
2018-09-09T16:45:12.611Z,24.18
2018-09-09T16:46:12.519Z,24.12
2018-09-09T16:48:05.289Z,24.11
2018-09-09T16:49:05.225Z,24.12
2018-09-09T16:50:58.024Z,23.93
2018-09-09T16:51:57.953Z,23.99
2018-09-09T16:53:50.720Z,23.79
2018-09-09T16:54:50.662Z,23.72
2018-09-09T16:56:43.435Z,23.63
2018-09-09T16:57:43.378Z,23.72
2018-09-09T16:59:36.170Z,23.64
2018-09-09T17:00:36.153Z,23.57
2018-09-09T17:02:28.892Z,23.59
2018-09-09T17:03:28.834Z,23.50
2018-09-09T17:05:21.606Z,23.42
2018-09-09T17:06:21.543Z,23.47
2018-09-09T17:08:14.330Z,23.41
2018-09-09T17:09:14.246Z,23.37
2018-09-09T17:11:07.031Z,23.19
2018-09-09T17:12:06.968Z,23.15
2018-09-09T17:13:59.777Z,23.11
2018-09-09T17:14:59.689Z,22.96
2018-09-09T17:16:52.552Z,22.85
2018-09-09T17:17:52.400Z,22.74
2018-09-09T17:19:45.170Z,22.66
2018-09-09T17:20:45.104Z,22.48
2018-09-09T17:22:37.876Z,22.45
2018-09-09T17:23:37.804Z,22.45
2018-09-09T17:25:30.569Z,22.30
2018-09-09T17:26:30.504Z,22.27
2018-09-09T17:28:23.300Z,22.19
2018-09-09T17:29:23.229Z,22.21
2018-09-09T17:31:16.005Z,22.12
2018-09-09T17:32:15.936Z,22.06
2018-09-09T17:34:08.720Z,21.98
2018-09-09T17:35:08.650Z,21.94
2018-09-09T17:37:01.451Z,21.83
2018-09-09T17:38:01.382Z,21.93
2018-09-09T17:39:54.155Z,21.82
2018-09-09T17:40:54.089Z,21.82
2018-09-09T17:42:46.871Z,21.67
2018-09-09T17:43:46.800Z,21.63
2018-09-09T17:45:39.562Z,21.53
2018-09-09T17:46:39.501Z,21.48
2018-09-09T17:48:32.281Z,21.51
2018-09-09T17:49:32.213Z,21.40
2018-09-09T17:51:24.999Z,21.24
2018-09-09T17:52:24.931Z,21.19
2018-09-09T17:54:17.706Z,21.08
2018-09-09T17:55:17.645Z,21.06
2018-09-09T17:57:10.419Z,21.00
2018-09-09T17:58:10.344Z,20.91
2018-09-09T18:00:03.110Z,20.83
2018-09-09T18:01:03.045Z,20.88
2018-09-09T18:02:55.840Z,20.73
2018-09-09T18:03:55.773Z,20.73
2018-09-09T18:05:48.534Z,20.58
2018-09-09T18:06:48.475Z,20.54
2018-09-09T18:08:41.255Z,20.50
2018-09-09T18:09:41.174Z,20.38
2018-09-09T18:11:33.967Z,20.48
2018-09-09T18:12:33.882Z,20.42
2018-09-09T18:14:26.648Z,20.35
2018-09-09T18:15:26.629Z,20.20
2018-09-09T18:17:19.449Z,20.12
2018-09-09T18:18:19.326Z,20.00
2018-09-09T18:20:12.127Z,19.95
2018-09-09T18:21:12.032Z,19.90
2018-09-09T18:23:04.844Z,19.72
2018-09-09T18:24:04.788Z,19.67
2018-09-09T18:25:57.535Z,19.57
2018-09-09T18:26:57.476Z,19.62
2018-09-09T18:28:50.282Z,19.55
2018-09-09T18:29:50.218Z,19.53
2018-09-09T18:31:42.993Z,19.42